sensor_id;sensor_type;location;lat;lon;timestamp;P1;durP1;ratioP1;P2;durP2;ratioP2
29414;SDS011;20303;48.302;11.914;2022-07-12T00:03:23;3.10;;;2.80;;
29414;SDS011;20303;48.302;11.914;2022-07-12T00:13:24;2.88;;;2.67;;
29414;SDS011;20303;48.302;11.914;2022-07-12T00:23:25;2.88;;;2.58;;
29414;SDS011;20303;48.302;11.914;2022-07-12T00:33:26;2.85;;;2.58;;
29414;SDS011;20303;48.302;11.914;2022-07-12T00:43:28;2.40;;;2.15;;
29414;SDS011;20303;48.302;11.914;2022-07-12T00:53:29;3.03;;;2.60;;
29414;SDS011;20303;48.302;11.914;2022-07-12T01:03:30;2.90;;;2.30;;
29414;SDS011;20303;48.302;11.914;2022-07-12T01:13:31;3.13;;;2.30;;
29414;SDS011;20303;48.302;11.914;2022-07-12T01:23:33;2.53;;;2.33;;
29414;SDS011;20303;48.302;11.914;2022-07-12T01:33:34;3.50;;;2.50;;
29414;SDS011;20303;48.302;11.914;2022-07-12T01:43:36;2.70;;;2.40;;
29414;SDS011;20303;48.302;11.914;2022-07-12T01:53:37;3.88;;;2.60;;
29414;SDS011;20303;48.302;11.914;2022-07-12T02:03:38;2.60;;;2.40;;
29414;SDS011;20303;48.302;11.914;2022-07-12T02:13:39;2.45;;;2.25;;
29414;SDS011;20303;48.302;11.914;2022-07-12T02:23:40;4.15;;;2.50;;
29414;SDS011;20303;48.302;11.914;2022-07-12T02:33:41;3.13;;;2.20;;
29414;SDS011;20303;48.302;11.914;2022-07-12T02:43:42;2.97;;;2.40;;
29414;SDS011;20303;48.302;11.914;2022-07-12T02:53:43;2.90;;;2.60;;
29414;SDS011;20303;48.302;11.914;2022-07-12T03:03:44;2.60;;;2.40;;
29414;SDS011;20303;48.302;11.914;2022-07-12T03:13:46;3.55;;;2.65;;
29414;SDS011;20303;48.302;11.914;2022-07-12T03:23:47;3.78;;;2.50;;
29414;SDS011;20303;48.302;11.914;2022-07-12T03:33:49;3.63;;;2.38;;
29414;SDS011;20303;48.302;11.914;2022-07-12T03:43:50;3.95;;;2.40;;
29414;SDS011;20303;48.302;11.914;2022-07-12T03:53:51;2.45;;;2.22;;
29414;SDS011;20303;48.302;11.914;2022-07-12T04:03:52;2.65;;;2.25;;
29414;SDS011;20303;48.302;11.914;2022-07-12T04:13:53;3.22;;;2.40;;
29414;SDS011;20303;48.302;11.914;2022-07-12T04:23:54;3.80;;;2.35;;
29414;SDS011;20303;48.302;11.914;2022-07-12T04:33:55;3.20;;;2.50;;
29414;SDS011;20303;48.302;11.914;2022-07-12T04:43:56;2.88;;;2.58;;
29414;SDS011;20303;48.302;11.914;2022-07-12T04:53:57;4.63;;;2.50;;
29414;SDS011;20303;48.302;11.914;2022-07-12T05:03:58;3.25;;;2.55;;
29414;SDS011;20303;48.302;11.914;2022-07-12T05:14:00;5.47;;;2.50;;
29414;SDS011;20303;48.302;11.914;2022-07-12T05:24:02;6.47;;;3.10;;
29414;SDS011;20303;48.302;11.914;2022-07-12T05:34:03;4.65;;;2.72;;
29414;SDS011;20303;48.302;11.914;2022-07-12T05:44:04;5.43;;;2.38;;
29414;SDS011;20303;48.302;11.914;2022-07-12T05:54:06;6.63;;;2.40;;
29414;SDS011;20303;48.302;11.914;2022-07-12T06:04:07;4.30;;;1.98;;
29414;SDS011;20303;48.302;11.914;2022-07-12T06:14:08;3.97;;;2.08;;
29414;SDS011;20303;48.302;11.914;2022-07-12T06:24:09;3.45;;;1.67;;
29414;SDS011;20303;48.302;11.914;2022-07-12T06:34:10;5.25;;;1.60;;
29414;SDS011;20303;48.302;11.914;2022-07-12T06:44:11;2.40;;;1.50;;
29414;SDS011;20303;48.302;11.914;2022-07-12T06:54:12;2.67;;;1.30;;
29414;SDS011;20303;48.302;11.914;2022-07-12T07:04:13;3.47;;;1.20;;
29414;SDS011;20303;48.302;11.914;2022-07-12T07:14:14;2.85;;;1.13;;
29414;SDS011;20303;48.302;11.914;2022-07-12T07:24:15;4.38;;;1.40;;
29414;SDS011;20303;48.302;11.914;2022-07-12T07:34:16;1.33;;;1.20;;
29414;SDS011;20303;48.302;11.914;2022-07-12T07:44:17;2.08;;;1.13;;
29414;SDS011;20303;48.302;11.914;2022-07-12T07:54:18;4.47;;;1.50;;
29414;SDS011;20303;48.302;11.914;2022-07-12T08:04:20;8.02;;;1.80;;
29414;SDS011;20303;48.302;11.914;2022-07-12T08:14:22;4.00;;;1.38;;
29414;SDS011;20303;48.302;11.914;2022-07-12T08:24:23;4.60;;;1.10;;
29414;SDS011;20303;48.302;11.914;2022-07-12T08:34:24;5.13;;;1.10;;
29414;SDS011;20303;48.302;11.914;2022-07-12T08:44:25;7.18;;;1.60;;
29414;SDS011;20303;48.302;11.914;2022-07-12T08:54:26;5.70;;;1.45;;
29414;SDS011;20303;48.302;11.914;2022-07-12T09:04:39;3.33;;;1.40;;
29414;SDS011;20303;48.302;11.914;2022-07-12T09:14:40;3.83;;;1.38;;
29414;SDS011;20303;48.302;11.914;2022-07-12T09:24:42;1.92;;;1.05;;
29414;SDS011;20303;48.302;11.914;2022-07-12T09:34:43;2.00;;;1.20;;
29414;SDS011;20303;48.302;11.914;2022-07-12T09:45:02;2.00;;;1.00;;
29414;SDS011;20303;48.302;11.914;2022-07-12T09:55:04;1.85;;;1.02;;
29414;SDS011;20303;48.302;11.914;2022-07-12T10:05:07;1.50;;;1.00;;
29414;SDS011;20303;48.302;11.914;2022-07-12T10:15:14;1.52;;;0.98;;
29414;SDS011;20303;48.302;11.914;2022-07-12T10:35:31;1.35;;;1.10;;
29414;SDS011;20303;48.302;11.914;2022-07-12T10:45:33;1.00;;;0.90;;
29414;SDS011;20303;48.302;11.914;2022-07-12T10:55:38;1.27;;;1.02;;
29414;SDS011;20303;48.302;11.914;2022-07-12T11:05:39;1.40;;;1.30;;
29414;SDS011;20303;48.302;11.914;2022-07-12T11:15:43;1.85;;;1.23;;
29414;SDS011;20303;48.302;11.914;2022-07-12T11:25:59;1.30;;;1.20;;
29414;SDS011;20303;48.302;11.914;2022-07-12T11:36:02;1.30;;;1.20;;
29414;SDS011;20303;48.302;11.914;2022-07-12T11:46:08;2.00;;;1.40;;
29414;SDS011;20303;48.302;11.914;2022-07-12T11:56:09;3.00;;;1.40;;
29414;SDS011;20303;48.302;11.914;2022-07-12T12:06:11;1.42;;;1.30;;
29414;SDS011;20303;48.302;11.914;2022-07-12T12:16:12;1.35;;;1.25;;
29414;SDS011;20303;48.302;11.914;2022-07-12T12:36:35;2.20;;;1.20;;
29414;SDS011;20303;48.302;11.914;2022-07-12T12:56:51;1.38;;;1.20;;
29414;SDS011;20303;48.302;11.914;2022-07-12T13:06:52;1.60;;;1.20;;
29414;SDS011;20303;48.302;11.914;2022-07-12T13:16:53;1.70;;;1.20;;
29414;SDS011;20303;48.302;11.914;2022-07-12T13:26:54;2.13;;;1.30;;
29414;SDS011;20303;48.302;11.914;2022-07-12T13:36:55;1.30;;;1.20;;
29414;SDS011;20303;48.302;11.914;2022-07-12T13:46:56;1.45;;;1.17;;
29414;SDS011;20303;48.302;11.914;2022-07-12T13:56:57;1.27;;;1.10;;
29414;SDS011;20303;48.302;11.914;2022-07-12T14:06:59;1.23;;;1.10;;
29414;SDS011;20303;48.302;11.914;2022-07-12T14:17:00;1.55;;;1.20;;
29414;SDS011;20303;48.302;11.914;2022-07-12T14:27:01;1.77;;;1.10;;
29414;SDS011;20303;48.302;11.914;2022-07-12T14:37:02;1.80;;;1.23;;
29414;SDS011;20303;48.302;11.914;2022-07-12T14:47:03;2.53;;;1.20;;
29414;SDS011;20303;48.302;11.914;2022-07-12T14:57:05;1.35;;;1.25;;
29414;SDS011;20303;48.302;11.914;2022-07-12T15:07:06;1.35;;;1.13;;
29414;SDS011;20303;48.302;11.914;2022-07-12T15:17:07;1.45;;;1.27;;
29414;SDS011;20303;48.302;11.914;2022-07-12T15:27:08;2.17;;;1.17;;
29414;SDS011;20303;48.302;11.914;2022-07-12T15:37:10;1.42;;;1.20;;
29414;SDS011;20303;48.302;11.914;2022-07-12T15:47:11;1.48;;;1.10;;
29414;SDS011;20303;48.302;11.914;2022-07-12T15:57:14;1.35;;;1.10;;
29414;SDS011;20303;48.302;11.914;2022-07-12T16:07:16;1.20;;;1.10;;
29414;SDS011;20303;48.302;11.914;2022-07-12T16:17:17;1.25;;;1.08;;
29414;SDS011;20303;48.302;11.914;2022-07-12T16:27:18;3.30;;;1.20;;
29414;SDS011;20303;48.302;11.914;2022-07-12T16:37:19;1.80;;;1.17;;
29414;SDS011;20303;48.302;11.914;2022-07-12T16:47:20;1.35;;;0.98;;
29414;SDS011;20303;48.302;11.914;2022-07-12T16:57:21;1.25;;;1.10;;
29414;SDS011;20303;48.302;11.914;2022-07-12T17:07:25;1.17;;;1.08;;
29414;SDS011;20303;48.302;11.914;2022-07-12T17:17:27;1.10;;;1.00;;
29414;SDS011;20303;48.302;11.914;2022-07-12T17:27:28;1.10;;;1.00;;
29414;SDS011;20303;48.302;11.914;2022-07-12T17:37:29;1.10;;;1.00;;
29414;SDS011;20303;48.302;11.914;2022-07-12T17:47:30;1.10;;;1.00;;
29414;SDS011;20303;48.302;11.914;2022-07-12T17:57:32;1.52;;;0.90;;
29414;SDS011;20303;48.302;11.914;2022-07-12T18:07:33;1.60;;;0.90;;
29414;SDS011;20303;48.302;11.914;2022-07-12T18:17:34;1.33;;;1.00;;
29414;SDS011;20303;48.302;11.914;2022-07-12T18:27:54;1.15;;;0.90;;
29414;SDS011;20303;48.302;11.914;2022-07-12T18:37:55;1.00;;;0.90;;
29414;SDS011;20303;48.302;11.914;2022-07-12T18:47:56;1.55;;;1.00;;
29414;SDS011;20303;48.302;11.914;2022-07-12T18:57:57;1.88;;;1.10;;
29414;SDS011;20303;48.302;11.914;2022-07-12T19:07:58;1.38;;;1.13;;
29414;SDS011;20303;48.302;11.914;2022-07-12T19:17:59;4.55;;;1.20;;
29414;SDS011;20303;48.302;11.914;2022-07-12T19:28:01;7.70;;;1.60;;
29414;SDS011;20303;48.302;11.914;2022-07-12T19:38:02;7.82;;;1.65;;
29414;SDS011;20303;48.302;11.914;2022-07-12T19:48:03;2.70;;;1.48;;
29414;SDS011;20303;48.302;11.914;2022-07-12T19:58:05;6.55;;;1.70;;
29414;SDS011;20303;48.302;11.914;2022-07-12T20:08:07;3.25;;;1.45;;
29414;SDS011;20303;48.302;11.914;2022-07-12T20:18:10;4.10;;;1.70;;
29414;SDS011;20303;48.302;11.914;2022-07-12T20:28:11;4.43;;;1.90;;
29414;SDS011;20303;48.302;11.914;2022-07-12T20:38:12;2.45;;;1.90;;
29414;SDS011;20303;48.302;11.914;2022-07-12T20:48:13;3.38;;;2.13;;
29414;SDS011;20303;48.302;11.914;2022-07-12T20:58:14;6.18;;;2.30;;
29414;SDS011;20303;48.302;11.914;2022-07-12T21:08:15;8.25;;;2.13;;
29414;SDS011;20303;48.302;11.914;2022-07-12T21:18:17;6.88;;;2.10;;
29414;SDS011;20303;48.302;11.914;2022-07-12T21:28:18;4.50;;;2.03;;
29414;SDS011;20303;48.302;11.914;2022-07-12T21:38:19;3.00;;;1.60;;
29414;SDS011;20303;48.302;11.914;2022-07-12T21:48:20;2.67;;;1.50;;
29414;SDS011;20303;48.302;11.914;2022-07-12T21:58:21;2.85;;;1.85;;
29414;SDS011;20303;48.302;11.914;2022-07-12T22:08:23;3.33;;;1.60;;
29414;SDS011;20303;48.302;11.914;2022-07-12T22:18:24;1.92;;;1.70;;
29414;SDS011;20303;48.302;11.914;2022-07-12T22:28:25;4.18;;;1.40;;
29414;SDS011;20303;48.302;11.914;2022-07-12T22:38:26;1.50;;;1.30;;
29414;SDS011;20303;48.302;11.914;2022-07-12T22:48:27;3.38;;;1.48;;
29414;SDS011;20303;48.302;11.914;2022-07-12T22:58:29;2.67;;;1.50;;
29414;SDS011;20303;48.302;11.914;2022-07-12T23:08:30;2.95;;;1.67;;
29414;SDS011;20303;48.302;11.914;2022-07-12T23:18:31;1.55;;;1.45;;
29414;SDS011;20303;48.302;11.914;2022-07-12T23:28:32;2.05;;;1.50;;
29414;SDS011;20303;48.302;11.914;2022-07-12T23:38:36;3.45;;;1.50;;
29414;SDS011;20303;48.302;11.914;2022-07-12T23:48:37;2.55;;;1.38;;
29414;SDS011;20303;48.302;11.914;2022-07-12T23:58:38;2.15;;;1.50;;
